createdAt,value
2019-03-04T00:01:43.234Z,10.90
2019-03-04T00:04:24.388Z,7.30
2019-03-04T00:07:05.209Z,8.03
2019-03-04T00:09:45.941Z,7.40
2019-03-04T00:12:26.774Z,6.50
2019-03-04T00:15:07.718Z,9.27
2019-03-04T00:17:48.308Z,5.70
2019-03-04T00:20:28.934Z,7.43
2019-03-04T00:23:09.704Z,10.30
2019-03-04T00:25:51.836Z,8.93
2019-03-04T00:28:33.436Z,9.47
2019-03-04T00:31:13.856Z,6.83
2019-03-04T00:33:54.415Z,6.77
2019-03-04T00:36:34.923Z,5.37
2019-03-04T00:39:15.898Z,9.33
2019-03-04T00:41:56.830Z,8.37
2019-03-04T00:44:37.328Z,6.80
2019-03-04T00:47:17.903Z,9.43
2019-03-04T00:49:58.828Z,5.70
2019-03-04T00:52:39.313Z,10.63
2019-03-04T00:55:20.188Z,4.60
2019-03-04T00:58:00.528Z,6.90
2019-03-04T01:00:41.236Z,5.83
2019-03-04T01:03:21.951Z,6.90
2019-03-04T01:06:03.453Z,7.53
2019-03-04T01:08:44.432Z,6.60
2019-03-04T01:11:24.907Z,8.70
2019-03-04T01:14:05.777Z,6.50
2019-03-04T01:16:46.424Z,8.67
2019-03-04T01:19:27.333Z,8.73
2019-03-04T01:22:08.316Z,9.57
2019-03-04T01:24:48.928Z,6.50
2019-03-04T01:27:29.628Z,7.20
2019-03-04T01:30:10.457Z,8.70
2019-03-04T01:32:50.980Z,8.10
2019-03-04T01:35:31.796Z,9.37
2019-03-04T01:38:12.516Z,6.80
2019-03-04T01:40:53.426Z,12.93
2019-03-04T01:43:34.121Z,7.90
2019-03-04T01:46:16.915Z,8.77
2019-03-04T01:48:57.824Z,10.73
2019-03-04T01:51:38.108Z,6.67
2019-03-04T01:54:18.782Z,6.73
2019-03-04T01:56:59.776Z,11.17
2019-03-04T01:59:40.527Z,8.60
2019-03-04T02:02:21.333Z,9.80
2019-03-04T02:05:02.188Z,6.57
2019-03-04T02:07:43.021Z,8.43
2019-03-04T02:10:24.024Z,14.27
2019-03-04T02:13:04.551Z,7.50
2019-03-04T02:15:45.405Z,9.20
2019-03-04T02:18:26.013Z,7.83
2019-03-04T02:21:06.736Z,8.87
2019-03-04T02:23:47.484Z,10.47
2019-03-04T02:26:28.571Z,5.67
2019-03-04T02:29:09.241Z,7.90
2019-03-04T02:31:49.976Z,8.70
2019-03-04T02:34:30.880Z,6.80
2019-03-04T02:37:11.664Z,9.10
2019-03-04T02:39:52.260Z,7.57
2019-03-04T02:42:32.892Z,12.57
2019-03-04T02:45:13.587Z,8.33
2019-03-04T02:47:54.400Z,8.80
2019-03-04T02:50:35.088Z,5.73
2019-03-04T02:53:16.058Z,7.23
2019-03-04T02:55:56.862Z,8.50
2019-03-04T02:58:37.824Z,8.80
2019-03-04T03:01:18.360Z,11.10
2019-03-04T03:03:59.128Z,10.03
2019-03-04T03:06:39.824Z,10.70
2019-03-04T03:09:20.540Z,6.03
2019-03-04T03:12:01.329Z,8.83
2019-03-04T03:14:42.256Z,10.00
2019-03-04T03:17:23.103Z,6.80
2019-03-04T03:20:03.564Z,10.17
2019-03-04T03:22:44.427Z,7.80
2019-03-04T03:25:25.090Z,13.27
2019-03-04T03:28:05.574Z,6.23
2019-03-04T03:30:46.587Z,8.67
2019-03-04T03:33:28.010Z,8.20
2019-03-04T03:36:08.791Z,7.57
2019-03-04T03:38:49.731Z,7.80
2019-03-04T03:41:30.159Z,12.13
2019-03-04T03:44:10.790Z,11.43
2019-03-04T03:46:51.127Z,7.17
2019-03-04T03:49:32.125Z,9.17
2019-03-04T03:52:15.324Z,9.50
2019-03-04T03:54:55.666Z,10.83
2019-03-04T03:57:36.541Z,5.03
2019-03-04T04:00:17.389Z,16.10
2019-03-04T04:02:57.771Z,8.03
2019-03-04T04:05:38.410Z,6.10
2019-03-04T04:08:19.154Z,8.90
2019-03-04T04:10:59.726Z,8.17
2019-03-04T04:13:40.204Z,10.17
2019-03-04T04:16:20.822Z,7.70
2019-03-04T04:19:01.687Z,9.03
2019-03-04T04:21:42.179Z,8.83
2019-03-04T04:24:23.011Z,12.27
2019-03-04T04:27:03.593Z,8.53
2019-03-04T04:29:44.203Z,7.93
2019-03-04T04:32:25.117Z,8.03
2019-03-04T04:35:05.594Z,7.40
2019-03-04T04:37:46.036Z,6.80
2019-03-04T04:40:26.564Z,7.73
2019-03-04T04:43:07.215Z,7.30
2019-03-04T04:45:47.900Z,6.63
2019-03-04T04:48:26.912Z,7.83
2019-03-04T04:51:14.841Z,12.57
2019-03-04T04:54:02.771Z,11.53
2019-03-04T04:56:50.673Z,11.80
2019-03-04T04:59:38.589Z,10.50
2019-03-04T05:02:26.492Z,7.10
2019-03-04T05:05:14.481Z,6.23
2019-03-04T05:08:02.404Z,11.43
2019-03-04T05:10:50.310Z,6.80
2019-03-04T05:13:38.212Z,7.33
2019-03-04T05:16:26.117Z,9.17
2019-03-04T05:19:14.041Z,7.73
2019-03-04T05:25:09.192Z,6.43
2019-03-04T05:27:50.002Z,6.03
2019-03-04T05:30:30.777Z,7.10
2019-03-04T05:33:11.368Z,7.60
2019-03-04T05:35:51.961Z,7.90
2019-03-04T05:38:32.674Z,8.13
2019-03-04T05:41:13.408Z,11.40
2019-03-04T05:43:54.184Z,4.80
2019-03-04T05:46:34.928Z,6.10
2019-03-04T05:49:15.377Z,5.97
2019-03-04T05:51:56.305Z,6.33
2019-03-04T05:54:37.060Z,6.30
2019-03-04T05:57:17.865Z,6.30
2019-03-04T05:59:58.550Z,7.03
2019-03-04T06:02:39.254Z,4.13
2019-03-04T06:05:20.129Z,8.53
2019-03-04T06:08:02.879Z,7.50
2019-03-04T06:10:43.369Z,6.53
2019-03-04T06:13:24.413Z,7.13
2019-03-04T06:16:05.325Z,4.70
2019-03-04T06:18:46.162Z,2.87
2019-03-04T06:21:26.864Z,3.47
2019-03-04T06:24:07.604Z,4.77
2019-03-04T06:26:48.218Z,4.23
2019-03-04T06:29:29.078Z,3.43
2019-03-04T06:32:09.780Z,2.73
2019-03-04T06:34:50.688Z,5.90
2019-03-04T06:37:31.369Z,6.83
2019-03-04T06:40:12.372Z,3.57
2019-03-04T06:42:53.079Z,3.73
2019-03-04T06:45:33.612Z,4.40
2019-03-04T06:48:14.788Z,2.83
2019-03-04T06:50:55.206Z,5.57
2019-03-04T06:53:35.750Z,5.07
2019-03-04T06:56:16.532Z,5.27
2019-03-04T06:58:57.507Z,6.13
2019-03-04T07:01:38.233Z,5.83
2019-03-04T07:04:19.073Z,2.80
2019-03-04T07:06:59.843Z,4.20
2019-03-04T07:09:40.618Z,6.33
2019-03-04T07:12:21.361Z,3.50
2019-03-04T07:15:02.243Z,4.50
2019-03-04T07:17:42.998Z,3.00
2019-03-04T07:20:23.784Z,4.00
2019-03-04T07:23:04.502Z,5.00
2019-03-04T07:25:45.160Z,7.40
2019-03-04T07:28:25.873Z,8.70
2019-03-04T07:31:06.681Z,3.70
2019-03-04T07:33:47.516Z,9.67
2019-03-04T07:36:28.481Z,4.53
2019-03-04T07:39:09.064Z,4.20
2019-03-04T07:41:49.533Z,4.80
2019-03-04T07:44:30.179Z,5.70
2019-03-04T07:47:11.205Z,5.47
2019-03-04T07:49:52.147Z,6.70
2019-03-04T07:52:32.945Z,4.23
2019-03-04T07:55:13.468Z,4.90
2019-03-04T07:57:54.248Z,8.20
2019-03-04T08:00:34.837Z,10.80
2019-03-04T08:03:15.620Z,5.60
2019-03-04T08:05:57.791Z,3.20
2019-03-04T08:08:39.025Z,4.07
2019-03-04T08:11:19.711Z,4.53
2019-03-04T08:14:00.340Z,5.23
2019-03-04T08:16:41.041Z,12.53
2019-03-04T08:19:21.745Z,5.00
2019-03-04T08:22:02.515Z,4.87
2019-03-04T08:24:43.094Z,4.43
2019-03-04T08:27:24.037Z,3.33
2019-03-04T08:30:04.926Z,1.90
2019-03-04T08:32:45.891Z,1.83
2019-03-04T08:35:26.816Z,6.33
2019-03-04T08:38:07.349Z,1.20
2019-03-04T08:40:48.059Z,4.70
2019-03-04T08:43:28.929Z,4.03
2019-03-04T08:46:09.502Z,3.10
2019-03-04T08:48:50.459Z,3.30
2019-03-04T08:51:31.024Z,2.97
2019-03-04T08:54:11.718Z,1.10
2019-03-04T08:56:52.681Z,8.53
2019-03-04T08:59:33.496Z,5.60
2019-03-04T09:02:14.482Z,7.97
2019-03-04T09:04:55.260Z,7.60
2019-03-04T09:07:35.921Z,4.73
2019-03-04T09:10:16.725Z,2.23
2019-03-04T09:12:57.351Z,6.07
2019-03-04T09:15:38.082Z,6.73
2019-03-04T09:18:18.660Z,1.47
2019-03-04T09:20:59.245Z,3.20
2019-03-04T09:23:39.954Z,3.20
2019-03-04T09:26:20.750Z,2.83
2019-03-04T09:29:01.416Z,2.97
2019-03-04T09:31:42.045Z,2.87
2019-03-04T09:34:22.913Z,5.23
2019-03-04T09:37:03.553Z,5.20
2019-03-04T09:39:44.346Z,2.97
2019-03-04T09:42:26.699Z,3.00
2019-03-04T09:45:07.089Z,8.33
2019-03-04T09:47:47.829Z,2.80
2019-03-04T09:50:28.928Z,4.90
2019-03-04T09:53:09.849Z,4.60
2019-03-04T09:55:50.419Z,7.17
2019-03-04T09:58:31.106Z,6.00
2019-03-04T10:01:11.716Z,18.07
2019-03-04T10:03:52.676Z,3.97
2019-03-04T10:06:33.753Z,8.20
2019-03-04T10:09:14.557Z,3.67
2019-03-04T10:11:55.286Z,5.53
2019-03-04T10:14:35.856Z,8.57
2019-03-04T10:17:16.612Z,7.60
2019-03-04T10:19:57.448Z,11.50
2019-03-04T10:22:38.100Z,6.97
2019-03-04T10:25:18.860Z,9.30
2019-03-04T10:27:59.416Z,6.37
2019-03-04T10:30:40.031Z,5.43
2019-03-04T10:33:20.748Z,8.40
2019-03-04T10:36:01.541Z,4.90
2019-03-04T10:38:42.919Z,6.60
2019-03-04T10:41:23.360Z,3.80
2019-03-04T10:44:04.220Z,6.40
2019-03-04T10:46:44.910Z,4.00
2019-03-04T10:49:25.753Z,3.10
2019-03-04T10:52:06.401Z,12.90
2019-03-04T10:54:47.223Z,5.80
2019-03-04T10:57:27.973Z,3.80
2019-03-04T11:00:08.407Z,7.60
2019-03-04T11:02:49.070Z,5.60
2019-03-04T11:05:29.988Z,5.00
2019-03-04T11:08:10.689Z,2.80
2019-03-04T11:10:51.624Z,7.97
2019-03-04T11:13:32.397Z,3.40
2019-03-04T11:16:13.318Z,6.30
2019-03-04T11:18:53.950Z,5.50
2019-03-04T11:21:34.558Z,2.90
2019-03-04T11:24:15.596Z,9.77
2019-03-04T11:26:56.639Z,10.70
2019-03-04T11:29:37.792Z,3.07
2019-03-04T11:32:18.137Z,4.00
2019-03-04T11:34:58.965Z,5.53
2019-03-04T11:37:39.784Z,6.30
2019-03-04T11:40:27.539Z,3.50
2019-03-04T11:43:08.364Z,7.40
2019-03-04T11:45:49.010Z,4.10
2019-03-04T11:48:29.944Z,5.83
2019-03-04T11:51:10.445Z,4.83
2019-03-04T11:53:50.978Z,4.07
2019-03-04T11:56:31.572Z,8.60
2019-03-04T11:59:12.368Z,4.63
2019-03-04T12:01:53.044Z,3.70
2019-03-04T12:04:33.812Z,5.03
2019-03-04T12:07:14.535Z,2.77
2019-03-04T12:09:55.122Z,5.60
2019-03-04T12:12:35.968Z,3.50
2019-03-04T12:15:16.784Z,4.87
2019-03-04T12:17:57.552Z,5.13
2019-03-04T12:20:38.455Z,9.10
2019-03-04T12:23:19.054Z,3.50
2019-03-04T12:25:59.888Z,4.27
2019-03-04T12:28:40.620Z,4.20
2019-03-04T12:31:22.114Z,8.73
2019-03-04T12:34:02.867Z,5.40
2019-03-04T12:36:45.387Z,4.03
2019-03-04T12:39:25.940Z,5.70
2019-03-04T12:42:06.889Z,2.53
2019-03-04T12:44:47.645Z,5.23
2019-03-04T12:47:28.475Z,4.83
2019-03-04T12:50:09.003Z,6.20
2019-03-04T12:52:49.561Z,5.37
2019-03-04T12:55:30.025Z,6.90
2019-03-04T12:58:10.347Z,2.07
2019-03-04T13:00:50.987Z,4.27
2019-03-04T13:03:31.361Z,3.07
2019-03-04T13:06:12.088Z,5.40
2019-03-04T13:08:52.505Z,1.70
2019-03-04T13:11:32.835Z,5.60
2019-03-04T13:14:13.428Z,4.80
2019-03-04T13:16:54.228Z,2.70
2019-03-04T13:19:34.996Z,1.10
2019-03-04T13:22:15.477Z,1.40
2019-03-04T13:24:55.932Z,1.10
2019-03-04T13:27:36.596Z,3.40
2019-03-04T13:30:17.196Z,3.13
2019-03-04T13:32:58.019Z,1.83
2019-03-04T13:35:38.412Z,1.10
2019-03-04T13:38:19.187Z,1.60
2019-03-04T13:40:59.568Z,0.90
2019-03-04T13:43:40.200Z,1.50
2019-03-04T13:46:20.711Z,1.87
2019-03-04T13:49:02.173Z,8.00
2019-03-04T13:51:42.500Z,2.00
2019-03-04T13:54:23.072Z,1.97
2019-03-04T13:57:03.563Z,1.37
2019-03-04T13:59:44.405Z,2.23
2019-03-04T14:02:24.791Z,2.97
2019-03-04T14:05:05.444Z,4.53
2019-03-04T14:07:45.904Z,2.80
2019-03-04T14:10:26.733Z,1.80
2019-03-04T14:13:07.743Z,1.80
2019-03-04T14:15:48.500Z,3.40
2019-03-04T14:18:29.718Z,2.70
2019-03-04T14:21:10.107Z,5.87
2019-03-04T14:23:50.485Z,3.13
2019-03-04T14:26:30.940Z,2.20
2019-03-04T14:29:11.528Z,4.83
2019-03-04T14:31:52.347Z,3.57
2019-03-04T14:34:32.958Z,3.33
2019-03-04T14:37:13.715Z,3.90
2019-03-04T14:39:54.583Z,5.17
2019-03-04T14:42:35.288Z,5.93
2019-03-04T14:45:16.015Z,5.73
2019-03-04T14:47:56.743Z,6.13
2019-03-04T14:50:37.532Z,7.83
2019-03-04T14:53:18.249Z,5.97
2019-03-04T14:56:01.132Z,7.07
2019-03-04T14:58:41.581Z,4.60
2019-03-04T15:01:22.350Z,6.40
2019-03-04T15:04:03.141Z,7.10
2019-03-04T15:06:44.056Z,4.70
2019-03-04T15:09:24.668Z,6.87
2019-03-04T15:12:05.571Z,5.80
2019-03-04T15:14:46.197Z,6.37
2019-03-04T15:17:26.760Z,5.97
2019-03-04T15:20:09.572Z,3.40
2019-03-04T15:22:50.101Z,7.33
2019-03-04T15:25:31.134Z,6.97
2019-03-04T15:28:12.420Z,5.40
2019-03-04T15:30:53.038Z,6.93
2019-03-04T15:33:33.731Z,5.57
2019-03-04T15:36:14.296Z,6.20
2019-03-04T15:38:55.004Z,8.60
2019-03-04T15:41:40.352Z,8.37
2019-03-04T15:44:17.971Z,10.47
2019-03-04T15:46:58.811Z,8.90
2019-03-04T15:49:39.633Z,4.33
2019-03-04T15:52:20.129Z,10.87
2019-03-04T15:55:00.493Z,5.50
2019-03-04T15:57:41.080Z,7.77
2019-03-04T16:00:21.536Z,7.83
2019-03-04T16:03:02.574Z,7.63
2019-03-04T16:05:43.100Z,12.60
2019-03-04T16:08:23.680Z,8.00
2019-03-04T16:11:04.176Z,8.57
2019-03-04T16:13:52.749Z,8.13
2019-03-04T16:16:27.805Z,12.00
2019-03-04T16:19:08.156Z,17.43
2019-03-04T16:21:48.787Z,8.87
2019-03-04T16:24:29.097Z,8.03
2019-03-04T16:27:09.803Z,14.20
2019-03-04T16:29:50.140Z,14.23
2019-03-04T16:32:30.615Z,8.70
2019-03-04T16:35:11.265Z,8.73
2019-03-04T16:37:51.933Z,14.60
2019-03-04T16:40:32.641Z,11.70
2019-03-04T16:43:13.100Z,19.13
2019-03-04T16:45:53.787Z,9.53
2019-03-04T16:48:34.215Z,8.97
2019-03-04T16:51:14.906Z,10.33
2019-03-04T16:53:55.469Z,11.50
2019-03-04T16:56:36.053Z,12.93
2019-03-04T16:59:16.792Z,11.30
2019-03-04T17:01:57.325Z,15.40
2019-03-04T17:04:38.540Z,10.57
2019-03-04T17:07:19.453Z,11.17
2019-03-04T17:10:00.353Z,18.27
2019-03-04T17:12:40.834Z,17.67
2019-03-04T17:15:21.660Z,16.20
2019-03-04T17:18:02.353Z,13.90
2019-03-04T17:20:43.075Z,11.20
2019-03-04T17:23:24.039Z,16.90
2019-03-04T17:26:04.503Z,12.10
2019-03-04T17:28:45.262Z,8.17
2019-03-04T17:31:25.849Z,7.17
2019-03-04T17:34:06.585Z,7.87
2019-03-04T17:36:47.233Z,15.67
2019-03-04T17:39:28.090Z,15.63
2019-03-04T17:42:08.780Z,13.20
2019-03-04T17:44:49.483Z,15.03
2019-03-04T17:47:30.100Z,11.87
2019-03-04T17:50:10.787Z,10.97
2019-03-04T17:52:51.553Z,9.93
2019-03-04T17:55:32.364Z,11.50
2019-03-04T17:58:12.902Z,16.20
2019-03-04T18:00:54.888Z,8.80
2019-03-04T18:03:35.751Z,10.33
2019-03-04T18:06:16.451Z,11.30
2019-03-04T18:08:57.269Z,11.47
2019-03-04T18:11:37.967Z,15.90
2019-03-04T18:14:18.879Z,16.70
2019-03-04T18:16:59.735Z,8.90
2019-03-04T18:19:40.472Z,11.93
2019-03-04T18:22:21.096Z,13.60
2019-03-04T18:25:02.127Z,17.43
2019-03-04T18:27:42.699Z,15.07
2019-03-04T18:30:23.743Z,13.77
2019-03-04T18:33:04.472Z,13.67
2019-03-04T18:35:45.240Z,16.20
2019-03-04T18:38:26.040Z,10.80
2019-03-04T18:41:06.739Z,13.60
2019-03-04T18:43:47.320Z,10.43
2019-03-04T18:46:28.192Z,14.27
2019-03-04T18:49:08.959Z,12.30
2019-03-04T18:51:49.800Z,18.53
2019-03-04T18:54:30.846Z,10.83
2019-03-04T18:57:11.444Z,16.90
2019-03-04T18:59:52.172Z,16.63
2019-03-04T19:02:32.977Z,9.97
2019-03-04T19:05:13.713Z,14.50
2019-03-04T19:07:54.692Z,12.87
2019-03-04T19:10:35.365Z,13.80
2019-03-04T19:13:15.932Z,12.57
2019-03-04T19:15:56.580Z,12.93
2019-03-04T19:18:37.319Z,8.23
2019-03-04T19:21:18.206Z,16.60
2019-03-04T19:23:58.689Z,33.13
2019-03-04T19:26:39.408Z,15.07
2019-03-04T19:29:19.926Z,11.20
2019-03-04T19:32:00.553Z,12.83
2019-03-04T19:34:41.323Z,11.33
2019-03-04T19:37:21.768Z,16.07
2019-03-04T19:40:02.586Z,9.90
2019-03-04T19:42:43.154Z,15.30
2019-03-04T19:45:23.786Z,10.40
2019-03-04T19:48:04.488Z,20.60
2019-03-04T19:50:45.228Z,10.30
2019-03-04T19:53:25.968Z,11.93
2019-03-04T19:56:06.736Z,16.20
2019-03-04T19:58:47.382Z,11.93
2019-03-04T20:01:28.432Z,13.77
2019-03-04T20:04:09.133Z,12.23
2019-03-04T20:06:50.080Z,12.33
2019-03-04T20:09:30.806Z,12.53
2019-03-04T20:12:11.819Z,17.97
2019-03-04T20:14:52.224Z,17.80
2019-03-04T20:17:32.960Z,12.27
2019-03-04T20:20:13.641Z,13.17
2019-03-04T20:22:54.600Z,20.03
2019-03-04T20:25:35.464Z,17.07
2019-03-04T20:28:16.029Z,12.47
2019-03-04T20:30:56.944Z,17.93
2019-03-04T20:33:37.565Z,18.50
2019-03-04T20:36:18.416Z,11.40
2019-03-04T20:38:59.044Z,11.60
2019-03-04T20:41:39.592Z,10.63
2019-03-04T20:44:20.092Z,13.17
2019-03-04T20:47:00.901Z,16.17
2019-03-04T20:49:41.446Z,11.00
2019-03-04T20:52:22.358Z,14.30
2019-03-04T20:55:03.128Z,8.13
2019-03-04T20:57:44.111Z,9.63
2019-03-04T21:00:27.968Z,10.30
2019-03-04T21:03:08.767Z,18.03
2019-03-04T21:05:49.646Z,8.43
2019-03-04T21:08:30.581Z,21.43
2019-03-04T21:11:11.265Z,18.83
2019-03-04T21:13:52.031Z,12.50
2019-03-04T21:16:32.873Z,9.00
2019-03-04T21:19:13.564Z,11.53
2019-03-04T21:21:54.308Z,16.33
2019-03-04T21:24:35.150Z,8.87
2019-03-04T21:27:15.803Z,11.33
2019-03-04T21:29:56.579Z,9.27
2019-03-04T21:32:37.257Z,10.70
2019-03-04T21:35:18.065Z,13.53
2019-03-04T21:37:58.473Z,10.00
2019-03-04T21:40:39.074Z,8.10
2019-03-04T21:43:19.523Z,7.20
2019-03-04T21:46:00.383Z,18.20
2019-03-04T21:48:40.895Z,8.10
2019-03-04T21:51:21.383Z,14.63
2019-03-04T21:54:01.901Z,11.83
2019-03-04T21:56:42.282Z,15.17
2019-03-04T21:59:23.051Z,15.87
2019-03-04T22:02:03.917Z,12.87
2019-03-04T22:04:44.498Z,7.53
2019-03-04T22:07:24.827Z,19.30
2019-03-04T22:10:05.732Z,8.27
2019-03-04T22:12:46.166Z,10.50
2019-03-04T22:15:26.862Z,10.33
2019-03-04T22:18:07.329Z,16.77
2019-03-04T22:20:48.030Z,10.30
2019-03-04T22:23:29.046Z,13.70
2019-03-04T22:26:09.624Z,13.53
2019-03-04T22:28:50.171Z,10.00
2019-03-04T22:31:30.993Z,12.10
2019-03-04T22:34:11.416Z,8.80
2019-03-04T22:36:52.586Z,13.13
2019-03-04T22:39:33.383Z,14.43
2019-03-04T22:42:13.980Z,11.60
2019-03-04T22:44:54.281Z,10.93
2019-03-04T22:47:34.774Z,13.10
2019-03-04T22:50:18.200Z,10.17
2019-03-04T22:52:58.823Z,10.23
2019-03-04T22:55:39.560Z,14.90
2019-03-04T22:58:28.014Z,15.43
2019-03-04T23:01:16.452Z,12.80
2019-03-04T23:03:57.627Z,11.80
2019-03-04T23:06:38.093Z,10.60
2019-03-04T23:09:18.982Z,14.43
2019-03-04T23:11:59.453Z,11.43
2019-03-04T23:14:40.278Z,8.40
2019-03-04T23:17:21.029Z,17.27
2019-03-04T23:20:01.682Z,8.07
2019-03-04T23:22:42.395Z,13.33
2019-03-04T23:25:23.081Z,15.90
2019-03-04T23:28:03.379Z,9.73
2019-03-04T23:30:44.044Z,12.40
2019-03-04T23:33:25.031Z,14.30
2019-03-04T23:36:05.748Z,14.37
2019-03-04T23:38:46.364Z,14.60
2019-03-04T23:41:26.881Z,12.93
2019-03-04T23:44:07.563Z,9.80
2019-03-04T23:46:48.051Z,13.53
2019-03-04T23:49:28.701Z,10.67
2019-03-04T23:52:09.444Z,10.90
2019-03-04T23:54:50.119Z,19.50
2019-03-04T23:57:30.715Z,10.37
